Time;durP1;ratioP1;P1;durP2;ratioP2;P2;SDS_P1;SDS_P2;PMS_P1;PMS_P2;Temp;Humidity;BMP_temperature;BMP_pressure;BME280_temperature;BME280_humidity;BME280_pressure;Samples;Min_cycle;Max_cycle;Signal;HPM_P1;HPM_P2
2023/04/05 00:00:55;;;;;;;12.45;5.72;;;;;;;;;;5085876;28;20093;-79
2023/04/05 00:03:23;;;;;;;12.65;4.88;;;;;;;;;;5088886;28;20495;-79
2023/04/05 00:05:53;;;;;;;12.88;5.35;;;;;;;;;;5088582;28;20100;-79
2023/04/05 00:09:12;;;;;;;12.65;5.00;;;;;;;;;;5086633;28;20488;-79
2023/04/05 00:11:41;;;;;;;11.35;4.90;;;;;;;;;;5086421;28;20062;-79
2023/04/05 00:14:09;;;;;;;13.60;5.95;;;;;;;;;;5087283;28;20040;-79
2023/04/05 00:16:37;;;;;;;14.05;5.88;;;;;;;;;;5087591;28;20044;-79
2023/04/05 00:19:05;;;;;;;13.27;5.65;;;;;;;;;;5088720;28;20094;-79
2023/04/05 00:21:33;;;;;;;12.98;5.28;;;;;;;;;;5088642;28;20036;-79
2023/04/05 00:24:01;;;;;;;11.60;4.90;;;;;;;;;;5087896;28;20032;-79
2023/04/05 00:26:29;;;;;;;11.05;4.60;;;;;;;;;;5080239;28;20660;-79
2023/04/05 00:28:57;;;;;;;14.50;5.07;;;;;;;;;;5088675;28;20048;-79
2023/04/05 00:31:25;;;;;;;13.38;5.13;;;;;;;;;;5086097;28;20044;-79
2023/04/05 00:33:53;;;;;;;17.08;5.45;;;;;;;;;;5101739;27;20585;-79
2023/04/05 00:36:25;;;;;;;10.48;5.32;;;;;;;;;;5086503;28;20039;-80
2023/04/05 00:38:53;;;;;;;12.40;5.18;;;;;;;;;;5063609;28;20044;-79
2023/04/05 00:41:21;;;;;;;10.95;5.30;;;;;;;;;;5079208;28;20519;-79
2023/04/05 00:43:49;;;;;;;11.07;5.10;;;;;;;;;;5086885;28;20097;-79
2023/04/05 00:46:21;;;;;;;11.82;5.00;;;;;;;;;;5085633;28;20046;-79
2023/04/05 00:48:49;;;;;;;13.55;5.03;;;;;;;;;;5092039;28;20039;-79
2023/04/05 00:51:19;;;;;;;15.23;5.38;;;;;;;;;;5086703;28;20044;-79
2023/04/05 00:53:47;;;;;;;10.63;4.90;;;;;;;;;;5083850;28;20127;-79
2023/04/05 00:59:33;;;;;;;14.15;5.05;;;;;;;;;;5085268;28;20523;-79
2023/04/05 01:02:12;;;;;;;13.73;4.78;;;;;;;;;;5087560;28;20066;-79
2023/04/05 01:04:48;;;;;;;10.88;4.85;;;;;;;;;;5076208;28;20048;-80
2023/04/05 01:08:12;;;;;;;11.43;4.53;;;;;;;;;;5086509;28;20028;-79
2023/04/05 01:10:47;;;;;;;10.85;5.35;;;;;;;;;;5084437;28;20044;-79
2023/04/05 01:13:25;;;;;;;10.68;4.57;;;;;;;;;;5071343;28;20587;-79
2023/04/05 01:15:53;;;;;;;9.82;4.60;;;;;;;;;;5084418;28;20040;-79
2023/04/05 01:18:26;;;;;;;9.35;4.40;;;;;;;;;;5102327;28;20105;-79
2023/04/05 01:21:19;;;;;;;9.52;4.55;;;;;;;;;;5087129;28;20032;-79
2023/04/05 01:24:19;;;;;;;7.40;3.85;;;;;;;;;;5084717;28;20506;-79
2023/04/05 01:27:21;;;;;;;9.32;4.88;;;;;;;;;;5080534;28;20085;-79
2023/04/05 01:30:21;;;;;;;14.93;4.13;;;;;;;;;;5082669;28;20048;-79
2023/04/05 01:32:56;;;;;;;12.00;4.78;;;;;;;;;;5085240;28;20695;-79
2023/04/05 01:35:38;;;;;;;12.70;4.97;;;;;;;;;;5084397;28;20124;-79
2023/04/05 01:38:16;;;;;;;9.63;3.80;;;;;;;;;;5087315;28;20036;-79
2023/04/05 01:40:48;;;;;;;13.30;4.65;;;;;;;;;;5079667;28;20028;-79
2023/04/05 01:43:17;;;;;;;15.95;5.10;;;;;;;;;;5085695;28;20043;-79
2023/04/05 01:45:45;;;;;;;16.60;4.70;;;;;;;;;;5081192;28;20662;-79
2023/04/05 01:48:13;;;;;;;14.18;4.20;;;;;;;;;;5065270;28;20036;-79
2023/04/05 01:51:12;;;;;;;11.68;5.72;;;;;;;;;;5102880;28;20127;-79
2023/04/05 01:53:41;;;;;;;16.70;5.65;;;;;;;;;;5087311;28;20042;-79
2023/04/05 01:56:09;;;;;;;8.57;4.25;;;;;;;;;;5085462;28;20040;-79
2023/04/05 01:58:37;;;;;;;13.18;4.28;;;;;;;;;;5067704;28;20567;-79
2023/04/05 02:01:13;;;;;;;11.88;5.00;;;;;;;;;;5079895;28;20752;-79
2023/04/05 02:03:45;;;;;;;16.60;4.50;;;;;;;;;;5088073;28;20040;-79
2023/04/05 02:06:13;;;;;;;16.48;4.95;;;;;;;;;;5081119;28;20060;-79
2023/04/05 02:08:45;;;;;;;13.32;4.15;;;;;;;;;;5085213;28;20039;-79
2023/04/05 02:11:13;;;;;;;14.60;5.00;;;;;;;;;;5079149;28;20090;-79
2023/04/05 02:13:41;;;;;;;14.63;4.85;;;;;;;;;;5087244;28;20040;-79
2023/04/05 02:16:09;;;;;;;13.07;5.32;;;;;;;;;;5083045;28;20121;-79
2023/04/05 02:18:40;;;;;;;16.40;5.22;;;;;;;;;;5081352;28;20039;-79
2023/04/05 02:21:10;;;;;;;8.90;4.20;;;;;;;;;;5083726;28;20044;-79
2023/04/05 02:23:39;;;;;;;7.55;4.20;;;;;;;;;;5078748;28;20063;-79
2023/04/05 02:26:13;;;;;;;8.77;3.53;;;;;;;;;;5079550;28;20071;-79
2023/04/05 02:28:46;;;;;;;8.40;4.03;;;;;;;;;;5082560;28;20395;-79
2023/04/05 02:31:13;;;;;;;8.95;3.78;;;;;;;;;;5086659;28;20032;-79
2023/04/05 02:33:41;;;;;;;7.30;4.07;;;;;;;;;;5082323;28;20059;-79
2023/04/05 02:36:11;;;;;;;8.85;3.42;;;;;;;;;;5081692;28;20598;-79
2023/04/05 02:39:03;;;;;;;13.73;4.45;;;;;;;;;;5068258;28;20044;-79
2023/04/05 02:44:25;;;;;;;12.18;3.75;;;;;;;;;;5082277;28;20097;-79
2023/04/05 02:46:53;;;;;;;10.27;4.03;;;;;;;;;;5077626;28;20524;-79
2023/04/05 02:49:27;;;;;;;10.10;4.40;;;;;;;;;;5078808;28;20643;-79
2023/04/05 02:52:03;;;;;;;9.57;3.60;;;;;;;;;;5066429;28;20040;-79
2023/04/05 02:54:55;;;;;;;8.13;4.15;;;;;;;;;;5085332;28;20543;-79
2023/04/05 02:57:27;;;;;;;12.80;4.30;;;;;;;;;;5100358;28;20040;-79
2023/04/05 03:00:19;;;;;;;10.75;4.10;;;;;;;;;;5085286;28;20040;-79
2023/04/05 03:02:47;;;;;;;8.45;3.85;;;;;;;;;;5083482;28;20044;-79
2023/04/05 03:05:17;;;;;;;8.75;3.95;;;;;;;;;;5085083;28;20079;-79
2023/04/05 03:07:50;;;;;;;12.00;3.88;;;;;;;;;;5078004;28;20128;-79
2023/04/05 03:10:57;;;;;;;11.65;4.50;;;;;;;;;;5082770;28;20032;-79
2023/04/05 03:13:25;;;;;;;10.60;4.28;;;;;;;;;;5084664;28;20032;-79
2023/04/05 03:15:54;;;;;;;10.80;4.97;;;;;;;;;;5100971;28;20172;-79
2023/04/05 03:18:29;;;;;;;8.48;4.30;;;;;;;;;;5085222;28;20081;-79
2023/04/05 03:21:05;;;;;;;7.63;3.78;;;;;;;;;;5086493;28;20516;-79
2023/04/05 03:23:45;;;;;;;6.85;3.88;;;;;;;;;;5100513;28;20117;-79
2023/04/05 03:26:23;;;;;;;7.82;3.85;;;;;;;;;;5084834;28;20039;-79
2023/04/05 03:28:53;;;;;;;12.85;4.05;;;;;;;;;;5082808;28;20025;-79
2023/04/05 03:31:29;;;;;;;8.77;3.30;;;;;;;;;;5095171;28;20040;-79
2023/04/05 03:34:05;;;;;;;7.38;3.90;;;;;;;;;;5099621;28;20500;-79
2023/04/05 03:36:41;;;;;;;8.30;3.85;;;;;;;;;;5082791;28;20122;-79
2023/04/05 03:39:33;;;;;;;8.88;3.90;;;;;;;;;;5100671;28;20059;-79
2023/04/05 03:42:11;;;;;;;8.98;3.78;;;;;;;;;;5085880;28;20062;-79
2023/04/05 03:44:39;;;;;;;9.05;3.58;;;;;;;;;;5075956;28;20032;-79
2023/04/05 03:47:07;;;;;;;11.32;3.47;;;;;;;;;;5087038;28;20040;-79
2023/04/05 03:49:35;;;;;;;7.50;3.22;;;;;;;;;;5085374;28;20472;-79
2023/04/05 03:52:27;;;;;;;10.95;3.30;;;;;;;;;;5098214;28;20036;-79
2023/04/05 03:54:55;;;;;;;9.27;3.72;;;;;;;;;;5085340;28;20488;-79
2023/04/05 03:57:47;;;;;;;5.60;3.05;;;;;;;;;;5084277;28;20039;-79
2023/04/05 04:00:41;;;;;;;6.43;3.17;;;;;;;;;;5084676;28;20032;-79
2023/04/05 04:03:19;;;;;;;11.00;3.55;;;;;;;;;;5097068;28;20036;-79
2023/04/05 04:05:53;;;;;;;6.50;2.70;;;;;;;;;;5077627;28;20131;-79
2023/04/05 04:08:21;;;;;;;7.60;3.17;;;;;;;;;;5099972;28;20510;-79
2023/04/05 04:10:49;;;;;;;7.78;3.38;;;;;;;;;;5081520;28;20035;-79
2023/04/05 04:13:41;;;;;;;7.28;3.25;;;;;;;;;;5085927;28;20561;-79
2023/04/05 04:16:33;;;;;;;7.70;3.33;;;;;;;;;;5083350;28;20043;-79
2023/04/05 04:19:31;;;;;;;6.80;2.85;;;;;;;;;;5085155;28;20559;-79
2023/04/05 04:22:21;;;;;;;7.47;3.42;;;;;;;;;;5105515;28;20396;-79
2023/04/05 04:25:21;;;;;;;6.88;3.35;;;;;;;;;;5018812;28;20080;-79
2023/04/05 04:28:08;;;;;;;6.45;2.92;;;;;;;;;;5019253;28;20639;-79
2023/04/05 04:30:49;;;;;;;5.43;3.00;;;;;;;;;;5005044;28;20069;-79
2023/04/05 04:33:37;;;;;;;7.65;3.22;;;;;;;;;;5001533;28;20159;-79
2023/04/05 04:36:25;;;;;;;5.68;3.03;;;;;;;;;;4991139;28;20530;-79
2023/04/05 04:39:17;;;;;;;7.20;3.33;;;;;;;;;;5000871;28;20058;-79
2023/04/05 04:41:55;;;;;;;5.47;2.45;;;;;;;;;;5002445;28;20096;-79
2023/04/05 04:45:01;;;;;;;7.03;3.10;;;;;;;;;;4943378;29;20051;-78
2023/04/05 04:47:48;;;;;;;6.35;3.20;;;;;;;;;;4941047;28;20074;-79
2023/04/05 04:50:39;;;;;;;6.28;3.28;;;;;;;;;;4946494;28;20118;-79
2023/04/05 04:53:09;;;;;;;7.10;3.42;;;;;;;;;;4942983;28;20047;-79
2023/04/05 04:58:29;;;;;;;8.65;3.28;;;;;;;;;;4945682;28;20058;-79
2023/04/05 05:01:28;;;;;;;8.30;3.92;;;;;;;;;;4947293;28;20054;-79
2023/04/05 05:03:57;;;;;;;8.77;3.65;;;;;;;;;;4960733;28;20054;-79
2023/04/05 05:06:51;;;;;;;8.18;3.65;;;;;;;;;;4958613;28;20075;-79
2023/04/05 05:09:19;;;;;;;6.38;3.15;;;;;;;;;;4962222;28;20046;-79
2023/04/05 05:11:53;;;;;;;5.25;2.88;;;;;;;;;;4963609;28;20415;-78
2023/04/05 05:14:21;;;;;;;6.28;3.22;;;;;;;;;;4990147;28;20148;-79
2023/04/05 05:16:49;;;;;;;7.35;3.17;;;;;;;;;;5077769;28;20051;-79
2023/04/05 05:19:19;;;;;;;6.40;3.00;;;;;;;;;;5065162;28;20028;-78
2023/04/05 05:21:53;;;;;;;6.20;3.22;;;;;;;;;;5100670;27;20052;-78
2023/04/05 05:24:21;;;;;;;10.05;3.63;;;;;;;;;;5086267;28;20048;-78
2023/04/05 05:26:49;;;;;;;6.80;3.25;;;;;;;;;;5087309;28;20499;-79
2023/04/05 05:29:23;;;;;;;6.15;3.47;;;;;;;;;;5088346;28;20541;-79
2023/04/05 05:31:51;;;;;;;7.95;3.38;;;;;;;;;;5085370;28;20117;-78
2023/04/05 05:34:19;;;;;;;9.90;3.90;;;;;;;;;;5081232;28;20035;-78
2023/04/05 05:37:13;;;;;;;13.55;3.85;;;;;;;;;;5087337;28;20111;-79
2023/04/05 05:39:45;;;;;;;7.45;3.50;;;;;;;;;;5082676;28;20415;-79
2023/04/05 05:42:39;;;;;;;10.38;4.10;;;;;;;;;;5086354;28;20094;-79
2023/04/05 05:45:07;;;;;;;7.25;3.97;;;;;;;;;;5088155;28;20068;-78
2023/04/05 05:47:35;;;;;;;8.98;4.43;;;;;;;;;;5074805;28;20119;-78
2023/04/05 05:50:03;;;;;;;8.43;4.10;;;;;;;;;;5084418;28;20071;-78
2023/04/05 05:52:55;;;;;;;8.23;4.03;;;;;;;;;;5084121;28;20027;-78
2023/04/05 05:55:23;;;;;;;15.60;5.43;;;;;;;;;;5084517;28;20047;-78
2023/04/05 05:58:15;;;;;;;8.57;3.97;;;;;;;;;;5085607;28;20035;-78
2023/04/05 06:00:47;;;;;;;9.25;4.20;;;;;;;;;;5082400;28;20048;-78
2023/04/05 06:03:24;;;;;;;10.35;4.38;;;;;;;;;;5079294;28;20085;-78
2023/04/05 06:06:09;;;;;;;11.38;4.50;;;;;;;;;;5083175;28;20455;-78
2023/04/05 06:08:42;;;;;;;9.07;4.55;;;;;;;;;;5076298;28;20551;-79
2023/04/05 06:11:20;;;;;;;8.45;3.85;;;;;;;;;;5076297;28;20523;-79
2023/04/05 06:14:13;;;;;;;9.63;4.25;;;;;;;;;;5076307;28;20047;-79
2023/04/05 06:17:11;;;;;;;14.13;4.25;;;;;;;;;;5076051;28;20040;-79
2023/04/05 06:19:41;;;;;;;11.63;4.55;;;;;;;;;;5077936;28;20131;-79
2023/04/05 06:22:16;;;;;;;7.95;4.38;;;;;;;;;;5078338;28;20058;-79
2023/04/05 06:24:45;;;;;;;14.63;4.53;;;;;;;;;;5078774;28;20044;-79
2023/04/05 06:27:39;;;;;;;10.70;4.13;;;;;;;;;;5078922;28;20044;-79
2023/04/05 06:30:11;;;;;;;10.63;4.70;;;;;;;;;;5058086;28;20147;-80
2023/04/05 06:32:41;;;;;;;11.75;5.03;;;;;;;;;;5077465;28;20516;-78
2023/04/05 06:35:54;;;;;;;11.00;4.22;;;;;;;;;;5076778;28;20079;-78
2023/04/05 06:38:25;;;;;;;11.77;5.53;;;;;;;;;;5003035;28;20133;-78
2023/04/05 06:41:20;;;;;;;13.95;4.18;;;;;;;;;;4988023;28;20049;-78
2023/04/05 06:43:57;;;;;;;8.15;4.28;;;;;;;;;;5005320;28;20482;-78
2023/04/05 06:46:45;;;;;;;13.63;4.88;;;;;;;;;;5003905;28;20126;-78
2023/04/05 06:49:40;;;;;;;11.77;5.18;;;;;;;;;;4983729;28;20046;-78
2023/04/05 06:52:19;;;;;;;17.30;4.53;;;;;;;;;;4970473;28;20042;-79
2023/04/05 06:54:47;;;;;;;7.80;4.25;;;;;;;;;;5002581;28;20044;-78
2023/04/05 06:57:39;;;;;;;9.93;4.20;;;;;;;;;;5004308;28;20049;-78
2023/04/05 07:00:12;;;;;;;9.77;4.85;;;;;;;;;;4998470;28;20050;-78
2023/04/05 07:02:41;;;;;;;13.15;4.93;;;;;;;;;;4987402;28;20050;-78
2023/04/05 07:05:10;;;;;;;13.65;5.72;;;;;;;;;;5003106;28;20056;-79
2023/04/05 07:07:44;;;;;;;13.60;4.63;;;;;;;;;;5002982;28;20046;-78
2023/04/05 07:10:13;;;;;;;15.65;4.53;;;;;;;;;;4985374;28;20046;-78
2023/04/05 07:13:05;;;;;;;10.32;4.80;;;;;;;;;;4981585;28;20108;-79
2023/04/05 07:15:33;;;;;;;9.98;4.45;;;;;;;;;;5051228;28;20060;-80
2023/04/05 07:18:05;;;;;;;8.65;4.45;;;;;;;;;;5085847;28;20768;-79
2023/04/05 07:20:33;;;;;;;8.05;4.38;;;;;;;;;;5083915;28;20074;-79
2023/04/05 07:23:01;;;;;;;13.32;5.10;;;;;;;;;;5082039;28;20118;-79
2023/04/05 07:25:29;;;;;;;14.80;4.95;;;;;;;;;;5081738;28;20052;-79
2023/04/05 07:28:00;;;;;;;12.13;5.22;;;;;;;;;;5079932;28;20059;-79
2023/04/05 07:30:33;;;;;;;11.18;4.50;;;;;;;;;;5084219;28;20106;-81
2023/04/05 07:33:13;;;;;;;10.80;4.18;;;;;;;;;;5067297;28;20060;-80
2023/04/05 07:35:53;;;;;;;12.48;4.53;;;;;;;;;;5081605;28;20040;-80
2023/04/05 07:38:45;;;;;;;11.77;4.80;;;;;;;;;;5085893;28;20153;-80
2023/04/05 07:44:07;;;;;;;11.57;4.90;;;;;;;;;;5081687;28;20064;-80
2023/04/05 07:46:43;;;;;;;8.23;4.28;;;;;;;;;;5087180;28;20510;-80
2023/04/05 07:49:25;;;;;;;10.80;4.32;;;;;;;;;;5088720;28;20036;-80
2023/04/05 07:51:59;;;;;;;12.68;4.63;;;;;;;;;;5090255;28;20373;-80
2023/04/05 07:54:30;;;;;;;10.82;4.75;;;;;;;;;;5087328;28;20047;-80
2023/04/05 07:57:00;;;;;;;10.98;4.95;;;;;;;;;;5082871;28;20117;-80
2023/04/05 08:00:11;;;;;;;14.18;5.60;;;;;;;;;;5075193;28;20044;-80
2023/04/05 08:02:43;;;;;;;17.35;5.40;;;;;;;;;;5089556;28;20182;-78
2023/04/05 08:05:11;;;;;;;12.57;4.88;;;;;;;;;;5089121;28;20051;-78
2023/04/05 08:07:39;;;;;;;9.43;4.57;;;;;;;;;;5083593;28;20043;-78
2023/04/05 08:10:31;;;;;;;11.73;4.57;;;;;;;;;;5081564;28;20036;-78
2023/04/05 08:13:04;;;;;;;10.27;4.35;;;;;;;;;;5101103;27;20106;-78
2023/04/05 08:15:33;;;;;;;9.82;3.97;;;;;;;;;;5085864;28;20044;-78
2023/04/05 08:18:27;;;;;;;8.23;4.00;;;;;;;;;;5088767;28;20032;-78
2023/04/05 08:20:59;;;;;;;6.85;3.50;;;;;;;;;;5088161;28;20464;-78
2023/04/05 08:23:27;;;;;;;7.35;3.80;;;;;;;;;;5088760;28;20032;-78
2023/04/05 08:25:55;;;;;;;9.20;3.70;;;;;;;;;;5089918;28;20043;-77
2023/04/05 08:28:27;;;;;;;6.90;4.00;;;;;;;;;;5089987;28;20102;-78
2023/04/05 08:30:56;;;;;;;9.32;4.15;;;;;;;;;;5087305;28;20051;-78
2023/04/05 08:33:29;;;;;;;8.57;4.13;;;;;;;;;;5086710;28;20036;-78
2023/04/05 08:35:57;;;;;;;5.88;3.33;;;;;;;;;;5089083;28;20115;-78
2023/04/05 08:38:25;;;;;;;6.68;3.47;;;;;;;;;;5083786;28;20120;-78
2023/04/05 08:40:53;;;;;;;7.28;2.97;;;;;;;;;;5082241;28;20070;-78
2023/04/05 08:43:32;;;;;;;5.85;2.30;;;;;;;;;;5085490;28;20048;-78
2023/04/05 08:46:08;;;;;;;4.57;2.00;;;;;;;;;;5083448;28;20660;-78
2023/04/05 08:48:35;;;;;;;5.35;2.40;;;;;;;;;;5084779;28;20051;-78
2023/04/05 08:51:05;;;;;;;5.68;2.75;;;;;;;;;;5088589;28;20036;-78
2023/04/05 08:53:58;;;;;;;6.07;2.55;;;;;;;;;;5080112;28;20496;-78
2023/04/05 08:56:27;;;;;;;4.57;2.17;;;;;;;;;;5099736;28;20090;-78
2023/04/05 08:59:11;;;;;;;8.65;2.95;;;;;;;;;;5083695;28;20040;-79
2023/04/05 09:01:47;;;;;;;6.22;2.63;;;;;;;;;;5088099;28;20032;-78
2023/04/05 09:04:19;;;;;;;5.65;2.90;;;;;;;;;;5085593;28;20150;-79
2023/04/05 09:06:50;;;;;;;7.45;2.78;;;;;;;;;;5086148;28;20036;-78
2023/04/05 09:09:24;;;;;;;6.75;2.97;;;;;;;;;;5084629;28;20118;-79
2023/04/05 09:11:51;;;;;;;7.43;2.85;;;;;;;;;;5084564;28;20062;-81
2023/04/05 09:14:26;;;;;;;5.40;2.78;;;;;;;;;;5082039;28;20047;-81
2023/04/05 09:16:55;;;;;;;6.45;2.60;;;;;;;;;;5099021;27;20048;-81
2023/04/05 09:19:27;;;;;;;6.05;2.63;;;;;;;;;;5086313;28;20028;-81
2023/04/05 09:22:05;;;;;;;6.50;2.33;;;;;;;;;;5081705;28;20043;-81
2023/04/05 09:24:44;;;;;;;5.15;2.50;;;;;;;;;;5069357;28;20043;-81
2023/04/05 09:27:19;;;;;;;5.93;2.78;;;;;;;;;;5089277;28;20044;-81
2023/04/05 09:29:57;;;;;;;5.80;2.70;;;;;;;;;;5083082;28;20077;-78
2023/04/05 09:32:29;;;;;;;7.00;3.00;;;;;;;;;;5085322;28;20463;-79
2023/04/05 09:35:27;;;;;;;5.30;2.60;;;;;;;;;;5084975;28;20036;-79
2023/04/05 09:37:59;;;;;;;5.43;2.60;;;;;;;;;;5083869;28;20031;-80
2023/04/05 09:40:48;;;;;;;5.80;2.53;;;;;;;;;;5078027;28;20054;-79
2023/04/05 09:43:39;;;;;;;8.48;2.42;;;;;;;;;;5098650;28;20040;-79
2023/04/05 09:46:32;;;;;;;6.10;2.78;;;;;;;;;;5086068;28;20040;-79
2023/04/05 09:49:02;;;;;;;5.88;2.30;;;;;;;;;;5085938;28;20097;-79
2023/04/05 09:51:55;;;;;;;5.85;2.45;;;;;;;;;;5088285;28;20032;-79
2023/04/05 09:54:23;;;;;;;4.20;2.45;;;;;;;;;;5101384;28;20392;-79
2023/04/05 09:56:56;;;;;;;8.07;3.00;;;;;;;;;;5088049;28;20046;-79
2023/04/05 09:59:25;;;;;;;5.68;2.70;;;;;;;;;;5087510;28;20085;-79
2023/04/05 10:01:53;;;;;;;6.35;2.78;;;;;;;;;;5066876;28;20040;-79
2023/04/05 10:04:23;;;;;;;8.52;3.10;;;;;;;;;;5084150;28;20040;-79
2023/04/05 10:06:51;;;;;;;6.43;2.67;;;;;;;;;;5080120;28;20051;-79
2023/04/05 10:09:25;;;;;;;5.47;2.83;;;;;;;;;;5084892;28;20036;-79
2023/04/05 10:12:26;;;;;;;7.10;2.42;;;;;;;;;;5084503;28;20036;-79
2023/04/05 10:14:55;;;;;;;5.95;2.50;;;;;;;;;;5081414;28;20070;-79
2023/04/05 10:17:36;;;;;;;7.38;3.05;;;;;;;;;;5082922;28;20493;-79
2023/04/05 10:20:13;;;;;;;8.48;3.20;;;;;;;;;;5096216;28;20071;-79
2023/04/05 10:23:00;;;;;;;6.28;2.80;;;;;;;;;;5083705;28;20047;-80
2023/04/05 10:25:50;;;;;;;5.63;2.90;;;;;;;;;;5091555;28;20066;-82
2023/04/05 10:28:36;;;;;;;7.20;2.88;;;;;;;;;;5097110;28;20040;-80
2023/04/05 10:31:27;;;;;;;7.40;2.97;;;;;;;;;;5086394;28;20416;-81
2023/04/05 10:34:55;;;;;;;8.63;2.90;;;;;;;;;;5101637;28;20055;-81
2023/04/05 10:37:35;;;;;;;5.68;2.78;;;;;;;;;;5092328;28;20495;-80
2023/04/05 10:40:09;;;;;;;6.85;2.65;;;;;;;;;;5102154;28;20047;-80
2023/04/05 10:42:45;;;;;;;6.07;2.75;;;;;;;;;;5116665;28;20054;-81
2023/04/05 10:45:18;;;;;;;6.45;2.80;;;;;;;;;;5101934;28;20044;-81
2023/04/05 10:47:53;;;;;;;6.65;2.80;;;;;;;;;;5120080;28;20044;-81
2023/04/05 10:50:23;;;;;;;6.15;3.30;;;;;;;;;;5106038;28;20104;-80
2023/04/05 10:53:16;;;;;;;7.00;2.90;;;;;;;;;;5107508;28;20091;-82
2023/04/05 10:55:49;;;;;;;6.97;2.92;;;;;;;;;;5093008;28;20059;-81
2023/04/05 10:58:18;;;;;;;6.18;2.53;;;;;;;;;;5089541;28;20050;-80
2023/04/05 11:00:47;;;;;;;8.82;3.10;;;;;;;;;;5091748;28;20038;-80
2023/04/05 11:03:48;;;;;;;7.43;2.63;;;;;;;;;;5098484;28;20063;-81
2023/04/05 11:06:19;;;;;;;5.75;2.47;;;;;;;;;;5093036;28;20086;-81
2023/04/05 11:08:50;;;;;;;5.88;2.42;;;;;;;;;;5089976;28;20086;-81
2023/04/05 11:11:44;;;;;;;6.95;3.25;;;;;;;;;;5098609;28;20027;-81
2023/04/05 11:14:20;;;;;;;5.15;2.55;;;;;;;;;;5095834;28;20099;-83
2023/04/05 11:16:55;;;;;;;7.60;2.90;;;;;;;;;;5098507;28;20058;-82
2023/04/05 11:19:41;;;;;;;7.18;2.72;;;;;;;;;;5100905;28;20095;-82
2023/04/05 11:22:33;;;;;;;7.75;2.70;;;;;;;;;;5074098;28;20024;-83
2023/04/05 11:25:25;;;;;;;5.72;2.92;;;;;;;;;;5093836;28;20042;-82
2023/04/05 11:31:25;;;;;;;8.23;2.50;;;;;;;;;;5082471;28;20036;-82
2023/04/05 11:34:10;;;;;;;6.63;2.92;;;;;;;;;;5057575;28;20044;-84
2023/04/05 11:36:44;;;;;;;5.90;2.85;;;;;;;;;;5051870;28;20039;-82
2023/04/05 11:39:20;;;;;;;7.03;2.85;;;;;;;;;;5087500;28;20432;-81
2023/04/05 11:42:02;;;;;;;6.82;2.75;;;;;;;;;;5086355;28;20093;-82
2023/04/05 11:44:42;;;;;;;6.30;2.50;;;;;;;;;;5089953;28;20048;-81
2023/04/05 11:47:35;;;;;;;6.28;2.78;;;;;;;;;;5088313;28;20020;-82
2023/04/05 11:50:08;;;;;;;5.95;3.13;;;;;;;;;;5090597;28;20046;-82
2023/04/05 11:52:41;;;;;;;5.20;2.15;;;;;;;;;;5093835;28;20044;-82
2023/04/05 11:55:10;;;;;;;3.88;2.17;;;;;;;;;;5087673;28;20044;-82
2023/04/05 11:57:43;;;;;;;6.75;2.78;;;;;;;;;;5088793;28;20032;-82
2023/04/05 12:00:15;;;;;;;5.93;2.40;;;;;;;;;;5101517;28;20113;-82
2023/04/05 12:02:43;;;;;;;7.53;2.50;;;;;;;;;;5088616;28;20048;-82
2023/04/05 12:05:11;;;;;;;8.18;2.40;;;;;;;;;;5091412;28;20040;-82
2023/04/05 12:07:39;;;;;;;8.40;3.50;;;;;;;;;;5090393;28;20064;-82
2023/04/05 12:10:14;;;;;;;8.23;2.80;;;;;;;;;;5087460;28;20113;-82
2023/04/05 12:12:46;;;;;;;6.30;2.17;;;;;;;;;;5067122;28;20036;-82
2023/04/05 12:15:17;;;;;;;6.32;2.67;;;;;;;;;;5088713;28;20032;-82
2023/04/05 12:18:13;;;;;;;3.83;2.17;;;;;;;;;;5086882;28;20092;-82
2023/04/05 12:20:47;;;;;;;5.30;2.60;;;;;;;;;;5087717;28;20029;-82
2023/04/05 12:23:39;;;;;;;5.20;2.30;;;;;;;;;;5085381;28;20543;-82
2023/04/05 12:26:13;;;;;;;5.97;2.22;;;;;;;;;;5101331;27;20050;-82
2023/04/05 12:29:07;;;;;;;6.63;2.50;;;;;;;;;;5087565;28;20040;-83
2023/04/05 12:31:40;;;;;;;5.45;2.63;;;;;;;;;;5094837;28;20059;-82
2023/04/05 12:34:10;;;;;;;4.90;1.85;;;;;;;;;;5087917;28;20046;-82
2023/04/05 12:36:37;;;;;;;6.00;2.90;;;;;;;;;;5088518;28;20055;-82
2023/04/05 12:39:06;;;;;;;4.75;2.33;;;;;;;;;;5083721;28;20111;-82
2023/04/05 12:41:39;;;;;;;6.32;2.47;;;;;;;;;;5089525;28;20044;-83
2023/04/05 12:44:27;;;;;;;6.95;2.50;;;;;;;;;;5087231;28;21123;-82
2023/04/05 12:47:20;;;;;;;4.18;2.13;;;;;;;;;;5084023;28;20659;-82
2023/04/05 12:49:47;;;;;;;6.75;2.40;;;;;;;;;;5088664;28;20066;-82
2023/04/05 12:52:18;;;;;;;6.00;2.28;;;;;;;;;;5088777;28;20085;-83
2023/04/05 12:55:15;;;;;;;9.05;2.90;;;;;;;;;;5103307;28;20059;-82
2023/04/05 12:57:59;;;;;;;5.35;2.38;;;;;;;;;;5082961;28;20127;-82
2023/04/05 13:00:28;;;;;;;5.90;2.55;;;;;;;;;;5085888;28;20047;-82
2023/04/05 13:02:58;;;;;;;4.47;2.20;;;;;;;;;;5082998;28;20062;-82
2023/04/05 13:05:36;;;;;;;4.43;2.47;;;;;;;;;;5088923;28;20500;-82
2023/04/05 13:08:40;;;;;;;6.72;3.13;;;;;;;;;;5086456;28;20048;-82
2023/04/05 13:11:33;;;;;;;6.75;2.50;;;;;;;;;;5088668;28;20078;-82
2023/04/05 13:14:01;;;;;;;8.52;2.92;;;;;;;;;;5068848;28;20045;-81
2023/04/05 13:16:33;;;;;;;4.82;2.50;;;;;;;;;;5103785;28;20040;-82
2023/04/05 13:19:05;;;;;;;5.35;2.35;;;;;;;;;;5086022;28;20070;-82
2023/04/05 13:21:33;;;;;;;6.20;2.15;;;;;;;;;;5085453;28;20032;-81
2023/04/05 13:24:01;;;;;;;5.90;2.60;;;;;;;;;;5083731;28;20039;-82
2023/04/05 13:26:44;;;;;;;5.13;2.22;;;;;;;;;;5085514;28;20040;-84
2023/04/05 13:29:13;;;;;;;5.10;2.42;;;;;;;;;;5088202;28;20052;-82
2023/04/05 13:31:41;;;;;;;7.20;2.28;;;;;;;;;;5080736;28;20036;-82
2023/04/05 13:34:09;;;;;;;5.80;2.38;;;;;;;;;;5087581;28;20091;-82
2023/04/05 13:36:37;;;;;;;4.00;1.95;;;;;;;;;;5081103;28;20097;-82
2023/04/05 13:39:05;;;;;;;5.07;2.10;;;;;;;;;;5089298;28;20036;-82
2023/04/05 13:41:33;;;;;;;5.05;2.50;;;;;;;;;;5086086;28;20384;-82
2023/04/05 13:44:01;;;;;;;10.10;2.35;;;;;;;;;;5085338;28;20048;-82
2023/04/05 13:46:33;;;;;;;4.20;1.95;;;;;;;;;;5087053;28;20059;-82
2023/04/05 13:49:32;;;;;;;6.13;2.10;;;;;;;;;;5082135;28;20901;-81
2023/04/05 13:51:59;;;;;;;5.93;2.17;;;;;;;;;;5086902;28;20048;-82
2023/04/05 13:54:27;;;;;;;6.13;2.00;;;;;;;;;;5085083;28;20047;-84
2023/04/05 13:57:21;;;;;;;4.72;2.05;;;;;;;;;;5090211;28;20023;-85
2023/04/05 14:00:14;;;;;;;3.13;1.77;;;;;;;;;;5079042;28;20040;-84
2023/04/05 14:03:21;;;;;;;5.50;1.55;;;;;;;;;;5057871;28;20049;-85
2023/04/05 14:06:03;;;;;;;6.15;2.10;;;;;;;;;;5062180;28;20052;-85
2023/04/05 14:09:56;;;;;;;4.32;1.90;;;;;;;;;;5043739;28;20048;-85
2023/04/05 14:16:25;;;;;;;5.63;2.20;;;;;;;;;;5051841;28;20120;-84
2023/04/05 14:19:07;;;;;;;4.85;1.90;;;;;;;;;;5057416;28;20056;-84
2023/04/05 14:21:52;;;;;;;5.10;2.20;;;;;;;;;;5080049;28;20056;-84
2023/04/05 14:25:07;;;;;;;5.90;1.80;;;;;;;;;;5067943;28;20040;-85
2023/04/05 14:28:39;;;;;;;4.68;1.80;;;;;;;;;;5056940;28;20147;-85
2023/04/05 14:38:03;;;;;;;4.15;2.28;;;;;;;;;;5005168;28;20076;-85
2023/04/05 14:51:25;;;;;;;3.10;1.75;;;;;;;;;;4949543;28;20582;-84
2023/04/05 14:57:19;;;;;;;3.90;1.67;;;;;;;;;;4922314;29;20074;-83
2023/04/05 15:00:11;;;;;;;3.65;1.52;;;;;;;;;;4925371;28;20051;-82
2023/04/05 15:02:41;;;;;;;3.65;1.63;;;;;;;;;;4979217;28;20061;-82
2023/04/05 15:05:33;;;;;;;4.30;1.88;;;;;;;;;;4972668;28;20057;-83
2023/04/05 15:08:01;;;;;;;4.63;2.00;;;;;;;;;;4985732;28;20080;-83
2023/04/05 15:11:09;;;;;;;4.28;1.90;;;;;;;;;;5017956;28;20048;-82
2023/04/05 15:13:57;;;;;;;4.95;2.20;;;;;;;;;;5083152;28;20092;-82
2023/04/05 15:16:25;;;;;;;4.63;1.90;;;;;;;;;;5086517;28;20055;-84
2023/04/05 15:19:11;;;;;;;5.57;2.38;;;;;;;;;;5079422;28;20097;-83
2023/04/05 15:21:57;;;;;;;5.90;2.33;;;;;;;;;;5083700;28;20070;-83
2023/04/05 15:24:40;;;;;;;5.30;1.90;;;;;;;;;;5053541;28;20048;-83
2023/04/05 15:30:03;;;;;;;33.05;14.52;;;;;;;;;;5075315;28;20094;-83
2023/04/05 15:32:45;;;;;;;15.27;7.03;;;;;;;;;;5083772;28;20048;-83
2023/04/05 15:35:13;;;;;;;8.35;3.67;;;;;;;;;;5062772;28;20446;-82
2023/04/05 15:37:45;;;;;;;13.65;6.45;;;;;;;;;;5081095;28;20051;-82
2023/04/05 15:40:13;;;;;;;10.00;4.70;;;;;;;;;;5081326;28;20071;-81
2023/04/05 15:42:41;;;;;;;6.32;3.25;;;;;;;;;;5097135;28;20491;-82
2023/04/05 15:45:33;;;;;;;3.75;2.17;;;;;;;;;;5084271;28;20037;-81
2023/04/05 15:48:01;;;;;;;3.28;1.63;;;;;;;;;;5082857;28;20565;-81
2023/04/05 15:50:29;;;;;;;5.45;3.00;;;;;;;;;;5084663;28;20032;-81
2023/04/05 15:53:03;;;;;;;6.28;3.00;;;;;;;;;;5086043;28;20067;-81
2023/04/05 15:55:35;;;;;;;3.38;1.80;;;;;;;;;;5080167;28;20093;-80
2023/04/05 15:58:03;;;;;;;3.97;1.90;;;;;;;;;;5082991;28;20086;-81
2023/04/05 16:00:57;;;;;;;4.03;1.70;;;;;;;;;;5081081;28;20032;-81
2023/04/05 16:03:31;;;;;;;9.05;3.80;;;;;;;;;;5083949;28;20511;-81
2023/04/05 16:06:27;;;;;;;7.40;3.17;;;;;;;;;;5085387;28;20086;-81
2023/04/05 16:08:55;;;;;;;16.33;8.32;;;;;;;;;;5090182;28;20519;-81
2023/04/05 16:11:25;;;;;;;9.30;4.63;;;;;;;;;;5086231;28;20040;-81
2023/04/05 16:13:53;;;;;;;19.60;10.02;;;;;;;;;;5090585;28;20450;-81
2023/04/05 16:16:26;;;;;;;6.60;3.53;;;;;;;;;;5091074;28;20044;-81
2023/04/05 16:19:13;;;;;;;3.63;1.80;;;;;;;;;;5085931;28;20381;-81
2023/04/05 16:22:05;;;;;;;10.43;4.53;;;;;;;;;;5089199;28;20047;-81
2023/04/05 16:24:35;;;;;;;13.13;6.00;;;;;;;;;;5103899;27;20568;-81